createdAt,value
2018-01-30T00:00:22.071Z,82.09
2018-01-30T00:01:22.154Z,81.81
2018-01-30T00:02:22.071Z,82.05
2018-01-30T00:03:22.133Z,83.10
2018-01-30T00:04:21.742Z,83.00
2018-01-30T00:05:28.537Z,82.81
2018-01-30T00:06:21.675Z,82.09
2018-01-30T00:07:23.741Z,81.90
2018-01-30T00:08:21.624Z,81.81
2018-01-30T00:09:21.701Z,81.71
2018-01-30T00:10:21.710Z,81.14
2018-01-30T00:11:27.552Z,81.29
2018-01-30T00:12:21.789Z,81.77
2018-01-30T00:13:21.521Z,81.62
2018-01-30T00:14:21.459Z,81.33
2018-01-30T00:15:26.043Z,81.33
2018-01-30T00:16:21.368Z,81.62
2018-01-30T00:17:22.378Z,81.43
2018-01-30T00:18:21.322Z,81.77
2018-01-30T00:19:21.364Z,82.09
2018-01-30T00:20:21.250Z,81.52
2018-01-30T00:21:21.331Z,81.71
2018-01-30T00:22:21.178Z,80.86
2018-01-30T00:23:21.187Z,81.43
2018-01-30T00:24:21.126Z,80.86
2018-01-30T00:25:22.116Z,81.05
2018-01-30T00:26:21.063Z,80.82
2018-01-30T00:27:22.136Z,80.91
2018-01-30T00:28:21.001Z,81.29
2018-01-30T00:29:22.045Z,81.96
2018-01-30T00:30:20.936Z,82.05
2018-01-30T00:31:21.960Z,81.67
2018-01-30T00:32:20.904Z,81.58
2018-01-30T00:33:20.942Z,81.58
2018-01-30T00:34:20.876Z,81.38
2018-01-30T00:35:22.803Z,80.82
2018-01-30T00:36:20.741Z,81.10
2018-01-30T00:37:20.788Z,81.58
2018-01-30T00:38:20.699Z,81.01
2018-01-30T00:39:20.683Z,80.53
2018-01-30T00:40:20.619Z,80.63
2018-01-30T00:41:21.612Z,80.44
2018-01-30T00:42:20.553Z,80.53
2018-01-30T00:43:20.600Z,80.24
2018-01-30T00:44:20.495Z,80.34
2018-01-30T00:45:21.535Z,80.53
2018-01-30T00:46:20.434Z,80.24
2018-01-30T00:47:20.423Z,80.63
2018-01-30T00:48:20.367Z,80.72
2018-01-30T00:49:20.435Z,80.63
2018-01-30T00:50:20.309Z,80.63
2018-01-30T00:51:21.382Z,80.34
2018-01-30T00:52:20.242Z,80.34
2018-01-30T00:53:20.259Z,80.15
2018-01-30T00:54:20.192Z,79.77
2018-01-30T00:55:20.171Z,79.39
2018-01-30T00:56:20.123Z,79.72
2018-01-30T00:57:20.196Z,79.05
2018-01-30T00:58:20.056Z,78.48
2018-01-30T00:59:21.119Z,77.91
2018-01-30T01:00:19.999Z,77.62
2018-01-30T01:01:20.008Z,77.81
2018-01-30T01:02:19.955Z,78.00
2018-01-30T01:03:20.941Z,78.34
2018-01-30T01:04:19.870Z,79.14
2018-01-30T01:05:20.956Z,78.48
2018-01-30T01:06:19.811Z,78.25
2018-01-30T01:07:19.843Z,79.39
2018-01-30T01:08:19.747Z,79.30
2018-01-30T01:09:19.753Z,79.77
2018-01-30T01:10:19.690Z,79.77
2018-01-30T01:11:20.689Z,79.39
2018-01-30T01:12:19.624Z,79.77
2018-01-30T01:13:19.678Z,79.30
2018-01-30T01:14:19.562Z,79.30
2018-01-30T01:15:19.536Z,79.96
2018-01-30T01:16:19.503Z,79.11
2018-01-30T01:17:19.551Z,78.82
2018-01-30T01:18:19.439Z,79.30
2018-01-30T01:19:19.517Z,79.16
2018-01-30T01:20:19.376Z,79.54
2018-01-30T01:21:19.431Z,79.54
2018-01-30T01:22:19.324Z,79.73
2018-01-30T01:23:20.366Z,79.44
2018-01-30T01:24:19.264Z,79.63
2018-01-30T01:25:19.250Z,79.92
2018-01-30T01:26:19.201Z,80.02
2018-01-30T01:27:19.268Z,79.73
2018-01-30T01:28:19.125Z,79.54
2018-01-30T01:29:19.179Z,79.16
2018-01-30T01:30:19.070Z,79.35
2018-01-30T01:31:19.091Z,79.73
2018-01-30T01:32:19.007Z,79.73
2018-01-30T01:33:18.999Z,78.97
2018-01-30T01:34:18.942Z,79.06
2018-01-30T01:35:19.014Z,78.53
2018-01-30T01:36:18.885Z,78.25
2018-01-30T01:37:18.926Z,78.40
2018-01-30T01:38:18.811Z,79.06
2018-01-30T01:39:19.791Z,79.16
2018-01-30T01:40:18.753Z,78.97
2018-01-30T01:41:18.747Z,79.11
2018-01-30T01:42:18.690Z,78.25
2018-01-30T01:43:19.690Z,77.77
2018-01-30T01:44:18.630Z,77.87
2018-01-30T01:45:18.669Z,78.06
2018-01-30T01:46:18.567Z,78.44
2018-01-30T01:47:18.589Z,77.87
2018-01-30T01:48:18.506Z,78.16
2018-01-30T01:49:18.493Z,78.16
2018-01-30T01:50:18.439Z,78.06
2018-01-30T01:51:18.514Z,77.49
2018-01-30T01:52:18.398Z,77.39
2018-01-30T01:53:18.428Z,77.77
2018-01-30T01:54:18.321Z,77.39
2018-01-30T01:55:18.334Z,78.06
2018-01-30T01:56:18.255Z,77.11
2018-01-30T01:57:18.252Z,77.30
2018-01-30T01:58:18.201Z,77.68
2018-01-30T01:59:18.258Z,77.58
2018-01-30T02:00:18.134Z,77.58
2018-01-30T02:01:18.171Z,77.97
2018-01-30T02:02:18.075Z,77.39
2018-01-30T02:03:18.085Z,77.58
2018-01-30T02:04:18.011Z,77.39
2018-01-30T02:05:18.096Z,76.63
2018-01-30T02:06:17.955Z,76.73
2018-01-30T02:07:19.951Z,76.73
2018-01-30T02:08:17.885Z,76.63
2018-01-30T02:09:17.918Z,76.76
2018-01-30T02:10:17.822Z,76.67
2018-01-30T02:11:17.869Z,76.20
2018-01-30T02:12:17.760Z,76.57
2018-01-30T02:13:18.801Z,76.67
2018-01-30T02:14:17.699Z,76.20
2018-01-30T02:15:17.752Z,75.43
2018-01-30T02:16:17.650Z,75.34
2018-01-30T02:17:18.681Z,75.72
2018-01-30T02:18:17.580Z,75.72
2018-01-30T02:19:17.574Z,75.72
2018-01-30T02:20:17.536Z,75.15
2018-01-30T02:21:17.583Z,75.05
2018-01-30T02:22:17.457Z,75.43
2018-01-30T02:23:17.507Z,75.43
2018-01-30T02:24:17.403Z,75.43
2018-01-30T02:25:17.409Z,75.53
2018-01-30T02:26:17.335Z,75.81
2018-01-30T02:27:18.343Z,76.01
2018-01-30T02:28:17.276Z,76.01
2018-01-30T02:29:17.333Z,75.81
2018-01-30T02:30:17.206Z,75.43
2018-01-30T02:31:17.245Z,75.62
2018-01-30T02:32:17.148Z,75.81
2018-01-30T02:33:17.159Z,76.20
2018-01-30T02:34:17.087Z,75.62
2018-01-30T02:35:19.059Z,75.43
2018-01-30T02:36:17.028Z,75.53
2018-01-30T02:37:17.076Z,76.10
2018-01-30T02:38:16.957Z,76.10
2018-01-30T02:39:18.017Z,76.29
2018-01-30T02:40:16.902Z,76.67
2018-01-30T02:41:17.927Z,76.67
2018-01-30T02:42:16.834Z,76.16
2018-01-30T02:43:16.923Z,76.57
2018-01-30T02:44:16.772Z,76.67
2018-01-30T02:45:17.856Z,76.10
2018-01-30T02:46:16.710Z,76.01
2018-01-30T02:47:16.690Z,76.48
2018-01-30T02:48:16.660Z,76.57
2018-01-30T02:49:16.650Z,76.39
2018-01-30T02:50:16.594Z,76.01
2018-01-30T02:51:17.584Z,76.10
2018-01-30T02:52:16.529Z,76.10
2018-01-30T02:53:16.572Z,76.39
2018-01-30T02:54:16.468Z,76.01
2018-01-30T02:55:16.538Z,75.87
2018-01-30T02:56:16.401Z,76.54
2018-01-30T02:57:16.450Z,76.16
2018-01-30T02:58:16.343Z,76.82
2018-01-30T02:59:16.358Z,77.39
2018-01-30T03:00:16.293Z,77.01
2018-01-30T03:01:16.270Z,76.92
2018-01-30T03:02:16.219Z,76.82
2018-01-30T03:03:16.282Z,76.16
2018-01-30T03:04:16.454Z,76.40
2018-01-30T03:05:16.197Z,77.30
2018-01-30T03:06:16.097Z,77.20
2018-01-30T03:07:16.105Z,76.73
2018-01-30T03:08:16.042Z,76.01
2018-01-30T03:09:15.999Z,75.40
2018-01-30T03:10:16.024Z,76.44
2018-01-30T03:11:15.939Z,77.11
2018-01-30T03:12:15.937Z,76.35
2018-01-30T03:13:15.880Z,76.25
2018-01-30T03:14:15.844Z,76.82
2018-01-30T03:15:15.837Z,76.39
2018-01-30T03:16:15.788Z,76.20
2018-01-30T03:17:15.849Z,75.40
2018-01-30T03:18:15.721Z,75.87
2018-01-30T03:19:15.769Z,76.54
2018-01-30T03:20:15.664Z,76.82
2018-01-30T03:21:15.679Z,76.39
2018-01-30T03:22:15.604Z,76.29
2018-01-30T03:23:15.583Z,75.96
2018-01-30T03:24:15.540Z,76.10
2018-01-30T03:25:15.596Z,76.39
2018-01-30T03:26:15.497Z,76.57
2018-01-30T03:27:16.539Z,76.10
2018-01-30T03:28:15.420Z,75.72
2018-01-30T03:29:15.421Z,75.81
2018-01-30T03:30:15.354Z,75.72
2018-01-30T03:31:16.361Z,75.53
2018-01-30T03:32:15.292Z,75.62
2018-01-30T03:33:15.344Z,75.05
2018-01-30T03:34:15.228Z,76.10
2018-01-30T03:35:15.257Z,76.01
2018-01-30T03:36:15.165Z,75.62
2018-01-30T03:37:15.171Z,75.62
2018-01-30T03:38:15.112Z,75.43
2018-01-30T03:39:15.188Z,75.72
2018-01-30T03:40:15.051Z,75.72
2018-01-30T03:41:15.022Z,75.62
2018-01-30T03:42:15.004Z,76.01
2018-01-30T03:43:14.951Z,75.81
2018-01-30T03:44:15.017Z,76.57
2018-01-30T03:45:14.891Z,76.10
2018-01-30T03:46:14.926Z,75.81
2018-01-30T03:47:14.832Z,76.20
2018-01-30T03:48:14.835Z,76.20
2018-01-30T03:49:14.766Z,75.34
2018-01-30T03:50:14.749Z,75.53
2018-01-30T03:51:14.707Z,76.01
2018-01-30T03:52:14.760Z,75.53
2018-01-30T03:53:14.651Z,76.10
2018-01-30T03:54:14.678Z,75.81
2018-01-30T03:55:14.581Z,75.43
2018-01-30T03:56:14.582Z,76.01
2018-01-30T03:57:14.522Z,75.91
2018-01-30T03:58:14.597Z,76.01
2018-01-30T03:59:14.455Z,75.68
2018-01-30T04:00:14.507Z,76.20
2018-01-30T04:01:14.396Z,76.01
2018-01-30T04:02:14.424Z,75.91
2018-01-30T04:03:14.352Z,75.43
2018-01-30T04:04:14.330Z,76.20
2018-01-30T04:05:14.272Z,76.10
2018-01-30T04:06:14.342Z,75.72
2018-01-30T04:07:14.205Z,76.10
2018-01-30T04:08:15.277Z,75.81
2018-01-30T04:09:14.146Z,75.91
2018-01-30T04:10:14.164Z,75.87
2018-01-30T04:11:14.082Z,76.06
2018-01-30T04:12:14.076Z,76.16
2018-01-30T04:13:14.072Z,75.78
2018-01-30T04:14:14.092Z,76.54
2018-01-30T04:15:13.961Z,76.16
2018-01-30T04:16:14.003Z,75.96
2018-01-30T04:17:13.900Z,75.81
2018-01-30T04:18:13.913Z,75.96
2018-01-30T04:19:13.832Z,76.16
2018-01-30T04:20:13.823Z,75.87
2018-01-30T04:21:13.769Z,76.73
2018-01-30T04:22:13.872Z,75.59
2018-01-30T04:23:13.705Z,75.59
2018-01-30T04:24:13.746Z,76.06
2018-01-30T04:25:13.645Z,76.01
2018-01-30T04:26:13.662Z,75.81
2018-01-30T04:27:13.577Z,75.43
2018-01-30T04:28:13.572Z,75.62
2018-01-30T04:29:13.524Z,75.34
2018-01-30T04:30:13.598Z,75.49
2018-01-30T04:31:13.451Z,75.87
2018-01-30T04:32:13.529Z,75.68
2018-01-30T04:33:13.395Z,75.68
2018-01-30T04:34:13.411Z,76.16
2018-01-30T04:35:13.338Z,76.40
2018-01-30T04:36:13.320Z,77.01
2018-01-30T04:37:13.270Z,76.63
2018-01-30T04:38:13.333Z,76.63
2018-01-30T04:39:13.207Z,76.82
2018-01-30T04:40:13.242Z,75.87
2018-01-30T04:41:13.142Z,75.49
2018-01-30T04:42:13.167Z,75.59
2018-01-30T04:43:13.080Z,75.72
2018-01-30T04:44:13.063Z,75.02
2018-01-30T04:45:13.033Z,75.49
2018-01-30T04:46:14.119Z,75.59
2018-01-30T04:47:12.961Z,75.02
2018-01-30T04:48:12.929Z,76.92
2018-01-30T04:49:12.898Z,76.16
2018-01-30T04:50:12.903Z,76.73
2018-01-30T04:51:12.838Z,76.82
2018-01-30T04:52:12.924Z,76.35
2018-01-30T04:53:12.779Z,76.06
2018-01-30T04:54:12.829Z,76.06
2018-01-30T04:55:12.715Z,75.21
2018-01-30T04:56:12.754Z,76.25
2018-01-30T04:57:12.656Z,76.35
2018-01-30T04:58:12.651Z,76.16
2018-01-30T04:59:12.601Z,76.40
2018-01-30T05:00:12.666Z,76.73
2018-01-30T05:01:12.529Z,76.73
2018-01-30T05:02:12.591Z,76.63
2018-01-30T05:03:12.463Z,76.16
2018-01-30T05:04:12.489Z,76.06
2018-01-30T05:05:12.401Z,76.06
2018-01-30T05:06:12.400Z,75.68
2018-01-30T05:07:12.341Z,75.87
2018-01-30T05:08:12.408Z,75.87
2018-01-30T05:09:12.286Z,75.40
2018-01-30T05:10:12.321Z,76.16
2018-01-30T05:11:12.210Z,76.16
2018-01-30T05:12:12.234Z,76.54
2018-01-30T05:13:12.151Z,76.03
2018-01-30T05:14:13.045Z,76.88
2018-01-30T05:15:12.093Z,77.26
2018-01-30T05:16:12.165Z,77.68
2018-01-30T05:17:12.028Z,76.78
2018-01-30T05:18:12.548Z,76.97
2018-01-30T05:19:11.978Z,77.39
2018-01-30T05:20:11.935Z,76.59
2018-01-30T05:21:11.905Z,76.59
2018-01-30T05:22:11.951Z,77.26
2018-01-30T05:23:11.844Z,77.92
2018-01-30T05:24:13.911Z,78.50
2018-01-30T05:25:11.778Z,77.73
2018-01-30T05:26:11.747Z,78.40
2018-01-30T05:27:11.781Z,77.73
2018-01-30T05:28:11.685Z,77.64
2018-01-30T05:29:11.690Z,77.45
2018-01-30T05:30:11.631Z,76.97
2018-01-30T05:31:11.704Z,77.26
2018-01-30T05:32:11.563Z,78.11
2018-01-30T05:33:11.615Z,77.20
2018-01-30T05:34:11.506Z,76.97
2018-01-30T05:35:11.469Z,77.07
2018-01-30T05:36:11.439Z,77.26
2018-01-30T05:37:11.439Z,77.36
2018-01-30T05:38:11.372Z,77.73
2018-01-30T05:39:11.452Z,77.92
2018-01-30T05:40:11.312Z,77.92
2018-01-30T05:41:11.373Z,78.11
2018-01-30T05:42:11.249Z,77.64
2018-01-30T05:43:11.279Z,77.73
2018-01-30T05:44:11.186Z,77.64
2018-01-30T05:45:11.186Z,77.64
2018-01-30T05:46:11.123Z,77.36
2018-01-30T05:47:11.205Z,77.83
2018-01-30T05:48:11.064Z,77.77
2018-01-30T05:49:11.115Z,77.01
2018-01-30T05:50:11.005Z,76.82
2018-01-30T05:51:11.026Z,76.35
2018-01-30T05:52:10.940Z,76.63
2018-01-30T05:53:10.938Z,76.82
2018-01-30T05:54:10.876Z,76.21
2018-01-30T05:55:10.951Z,76.21
2018-01-30T05:56:10.817Z,77.55
2018-01-30T05:57:10.863Z,76.97
2018-01-30T05:58:10.757Z,77.73
2018-01-30T05:59:10.787Z,78.02
2018-01-30T06:00:10.693Z,77.30
2018-01-30T06:01:10.685Z,76.92
2018-01-30T06:02:10.626Z,76.92
2018-01-30T06:03:10.695Z,76.35
2018-01-30T06:04:10.568Z,76.63
2018-01-30T06:05:11.630Z,77.11
2018-01-30T06:06:10.536Z,76.82
2018-01-30T06:07:10.518Z,76.16
2018-01-30T06:08:10.437Z,76.06
2018-01-30T06:09:10.428Z,76.16
2018-01-30T06:10:10.380Z,76.25
2018-01-30T06:11:10.406Z,76.54
2018-01-30T06:12:10.393Z,76.25
2018-01-30T06:13:10.320Z,75.96
2018-01-30T06:14:10.249Z,75.78
2018-01-30T06:15:10.335Z,76.73
2018-01-30T06:16:10.208Z,76.44
2018-01-30T06:17:10.245Z,76.92
2018-01-30T06:18:10.130Z,76.35
2018-01-30T06:19:10.157Z,76.54
2018-01-30T06:20:10.064Z,76.44
2018-01-30T06:21:10.066Z,76.82
2018-01-30T06:22:10.005Z,76.63
2018-01-30T06:23:09.981Z,76.44
2018-01-30T06:24:09.983Z,76.63
2018-01-30T06:25:09.913Z,76.06
2018-01-30T06:26:09.996Z,76.16
2018-01-30T06:27:09.853Z,76.82
2018-01-30T06:28:09.907Z,76.16
2018-01-30T06:29:09.789Z,76.06
2018-01-30T06:30:09.824Z,76.44
2018-01-30T06:31:09.728Z,76.73
2018-01-30T06:32:09.734Z,76.63
2018-01-30T06:33:09.665Z,76.63
2018-01-30T06:34:09.748Z,76.63
2018-01-30T06:35:09.602Z,76.16
2018-01-30T06:36:09.659Z,76.63
2018-01-30T06:37:09.542Z,76.35
2018-01-30T06:38:09.605Z,76.82
2018-01-30T06:39:09.479Z,76.25
2018-01-30T06:40:09.480Z,77.01
2018-01-30T06:41:09.411Z,76.06
2018-01-30T06:42:09.492Z,76.54
2018-01-30T06:43:09.373Z,76.16
2018-01-30T06:44:09.404Z,76.16
2018-01-30T06:45:09.287Z,76.63
2018-01-30T06:46:09.319Z,76.92
2018-01-30T06:47:09.228Z,76.73
2018-01-30T06:48:09.326Z,76.54
2018-01-30T06:49:09.165Z,76.06
2018-01-30T06:50:09.245Z,76.44
2018-01-30T06:51:09.097Z,76.54
2018-01-30T06:52:09.180Z,75.96
2018-01-30T06:53:09.041Z,75.68
2018-01-30T06:54:09.068Z,75.96
2018-01-30T06:55:08.974Z,76.44
2018-01-30T06:56:09.077Z,76.25
2018-01-30T06:57:08.914Z,75.87
2018-01-30T06:58:08.983Z,76.25
2018-01-30T06:59:08.848Z,76.06
2018-01-30T07:00:08.905Z,76.73
2018-01-30T07:01:08.807Z,76.82
2018-01-30T07:02:08.816Z,76.06
2018-01-30T07:03:08.734Z,76.16
2018-01-30T07:04:08.826Z,76.54
2018-01-30T07:05:08.662Z,76.63
2018-01-30T07:06:08.736Z,76.44
2018-01-30T07:07:08.596Z,77.11
2018-01-30T07:08:08.645Z,77.01
2018-01-30T07:09:08.538Z,77.01
2018-01-30T07:10:08.557Z,76.54
2018-01-30T07:11:08.466Z,76.82
2018-01-30T07:12:08.569Z,76.16
2018-01-30T07:13:08.406Z,76.88
2018-01-30T07:14:08.482Z,76.92
2018-01-30T07:15:08.342Z,76.82
2018-01-30T07:16:08.393Z,76.63
2018-01-30T07:17:08.278Z,76.73
2018-01-30T07:18:08.304Z,76.06
2018-01-30T07:19:08.219Z,76.63
2018-01-30T07:20:08.320Z,76.63
2018-01-30T07:21:08.151Z,76.35
2018-01-30T07:22:08.229Z,76.63
2018-01-30T07:23:08.087Z,76.82
2018-01-30T07:24:08.138Z,76.73
2018-01-30T07:25:08.025Z,76.69
2018-01-30T07:26:08.051Z,76.88
2018-01-30T07:27:07.959Z,77.26
2018-01-30T07:28:08.064Z,77.30
2018-01-30T07:29:07.895Z,77.11
2018-01-30T07:30:07.978Z,76.63
2018-01-30T07:31:07.833Z,77.01
2018-01-30T07:32:07.884Z,77.20
2018-01-30T07:33:07.768Z,77.01
2018-01-30T07:34:07.794Z,76.92
2018-01-30T07:35:07.705Z,77.01
2018-01-30T07:36:07.818Z,77.11
2018-01-30T07:37:07.643Z,77.39
2018-01-30T07:38:07.717Z,77.58
2018-01-30T07:39:07.582Z,77.30
2018-01-30T07:40:07.634Z,77.49
2018-01-30T07:41:07.520Z,77.20
2018-01-30T07:42:07.545Z,77.01
2018-01-30T07:43:07.454Z,76.67
2018-01-30T07:44:07.558Z,76.82
2018-01-30T07:45:07.394Z,77.11
2018-01-30T07:46:07.468Z,77.30
2018-01-30T07:47:07.336Z,77.68
2018-01-30T07:48:07.377Z,77.77
2018-01-30T07:49:07.277Z,78.16
2018-01-30T07:50:07.293Z,77.87
2018-01-30T07:51:07.208Z,78.19
2018-01-30T07:52:07.302Z,78.00
2018-01-30T07:53:07.137Z,77.81
2018-01-30T07:54:07.216Z,78.34
2018-01-30T07:55:07.071Z,77.68
2018-01-30T07:56:07.127Z,78.72
2018-01-30T07:57:07.024Z,78.38
2018-01-30T08:00:05.072Z,78.57
2018-01-30T08:01:04.857Z,78.29
2018-01-30T08:02:58.332Z,77.24
2018-01-30T08:03:58.120Z,78.29
2018-01-30T08:04:58.154Z,78.38
2018-01-30T08:05:58.058Z,78.86
2018-01-30T08:06:58.023Z,78.10
2018-01-30T08:07:58.002Z,78.19
2018-01-30T08:08:58.134Z,78.29
2018-01-30T08:09:57.945Z,78.48
2018-01-30T08:10:58.045Z,78.48
2018-01-30T08:11:57.870Z,78.82
2018-01-30T08:12:57.841Z,79.72
2018-01-30T08:13:57.960Z,78.96
2018-01-30T08:14:57.780Z,78.29
2018-01-30T08:15:57.871Z,78.57
2018-01-30T08:16:57.723Z,78.38
2018-01-30T08:17:57.787Z,78.29
2018-01-30T08:18:57.657Z,78.77
2018-01-30T08:19:57.812Z,78.86
2018-01-30T08:20:57.595Z,79.14
2018-01-30T08:21:57.719Z,79.24
2018-01-30T08:22:57.536Z,78.96
2018-01-30T08:23:57.619Z,78.96
2018-01-30T08:24:57.472Z,78.67
2018-01-30T08:25:57.633Z,78.96
2018-01-30T08:26:57.418Z,79.62
2018-01-30T08:27:57.551Z,79.62
2018-01-30T08:28:57.363Z,79.72
2018-01-30T08:29:57.452Z,79.72
2018-01-30T08:30:57.291Z,79.33
2018-01-30T08:31:57.314Z,80.29
2018-01-30T08:32:57.220Z,79.72
2018-01-30T08:33:57.328Z,80.00
2018-01-30T08:34:57.159Z,80.29
2018-01-30T08:35:57.235Z,80.38
2018-01-30T08:36:57.101Z,80.66
2018-01-30T08:37:57.148Z,80.19
2018-01-30T08:38:57.044Z,80.10
2018-01-30T08:39:57.048Z,79.43
2018-01-30T08:40:56.983Z,79.62
2018-01-30T08:41:57.079Z,79.72
2018-01-30T08:42:56.926Z,80.19
2018-01-30T08:43:56.974Z,80.00
2018-01-30T08:44:56.857Z,79.75
2018-01-30T08:45:56.890Z,79.62
2018-01-30T08:46:56.800Z,81.14
2018-01-30T08:47:56.790Z,80.10
2018-01-30T08:48:56.737Z,80.95
2018-01-30T08:49:56.800Z,80.95
2018-01-30T08:50:56.672Z,81.71
2018-01-30T08:51:56.704Z,81.43
2018-01-30T08:52:56.620Z,81.24
2018-01-30T08:53:56.624Z,81.43
2018-01-30T08:54:56.552Z,81.28
2018-01-30T08:55:56.640Z,81.09
2018-01-30T08:56:56.495Z,80.42
2018-01-30T08:57:56.552Z,81.09
2018-01-30T08:58:56.426Z,81.09
2018-01-30T08:59:56.462Z,81.18
2018-01-30T09:00:56.373Z,81.09
2018-01-30T09:01:56.363Z,80.80
2018-01-30T09:02:56.303Z,80.23
2018-01-30T09:03:56.380Z,80.33
2018-01-30T09:04:56.244Z,80.42
2018-01-30T09:05:56.294Z,80.71
2018-01-30T09:06:56.190Z,80.61
2018-01-30T09:07:56.203Z,80.33
2018-01-30T09:08:56.126Z,80.33
2018-01-30T09:09:56.216Z,80.99
2018-01-30T09:10:56.062Z,80.99
2018-01-30T09:11:56.127Z,81.18
2018-01-30T09:12:56.004Z,81.37
2018-01-30T09:13:56.038Z,81.56
2018-01-30T09:14:55.958Z,81.56
2018-01-30T09:15:55.960Z,81.95
2018-01-30T09:16:55.902Z,81.37
2018-01-30T09:17:55.964Z,81.56
2018-01-30T09:18:55.816Z,81.76
2018-01-30T09:19:55.875Z,81.56
2018-01-30T09:20:55.753Z,81.37
2018-01-30T09:21:55.785Z,81.23
2018-01-30T09:22:55.697Z,81.56
2018-01-30T09:23:55.821Z,81.28
2018-01-30T09:24:55.627Z,81.18
2018-01-30T09:25:55.717Z,81.56
2018-01-30T09:26:55.574Z,81.09
2018-01-30T09:27:55.628Z,80.42
2018-01-30T09:28:55.514Z,80.42
2018-01-30T09:29:55.540Z,81.18
2018-01-30T09:30:55.458Z,81.13
2018-01-30T09:31:55.555Z,81.03
2018-01-30T09:32:55.389Z,81.23
2018-01-30T09:33:55.464Z,81.23
2018-01-30T09:34:55.331Z,80.75
2018-01-30T09:35:55.375Z,81.03
2018-01-30T09:36:55.266Z,81.13
2018-01-30T09:37:55.285Z,81.28
2018-01-30T09:38:55.205Z,81.70
2018-01-30T09:39:55.195Z,81.41
2018-01-30T09:40:55.160Z,81.60
2018-01-30T09:41:55.209Z,81.98
2018-01-30T09:42:55.082Z,81.85
2018-01-30T09:43:55.119Z,81.79
2018-01-30T09:44:55.088Z,82.08
2018-01-30T09:45:55.134Z,81.51
2018-01-30T09:46:54.988Z,81.89
2018-01-30T09:47:55.970Z,81.79
2018-01-30T09:48:54.900Z,81.89
2018-01-30T09:49:54.958Z,81.89
2018-01-30T09:50:54.848Z,81.70
2018-01-30T09:51:54.864Z,81.79
2018-01-30T09:52:54.796Z,82.08
2018-01-30T09:53:54.878Z,81.51
2018-01-30T09:54:54.713Z,81.89
2018-01-30T09:55:54.787Z,81.79
2018-01-30T09:56:54.654Z,82.18
2018-01-30T09:57:54.705Z,81.51
2018-01-30T09:58:54.612Z,81.70
2018-01-30T09:59:54.714Z,81.93
2018-01-30T10:00:54.478Z,79.19
2018-01-30T10:01:54.515Z,0.00
2018-01-30T10:02:54.479Z,0.00
2018-01-30T10:03:54.536Z,0.00
2018-01-30T10:05:12.628Z,47.15
2018-01-30T10:06:12.390Z,44.48
2018-01-30T10:08:05.674Z,42.20
2018-01-30T10:09:05.643Z,42.00
2018-01-30T10:10:05.726Z,41.91
2018-01-30T10:11:05.624Z,41.82
2018-01-30T10:12:05.681Z,41.53
2018-01-30T10:13:05.523Z,41.05
2018-01-30T10:14:05.546Z,41.43
2018-01-30T10:15:05.487Z,41.14
2018-01-30T10:16:05.559Z,41.14
2018-01-30T10:17:05.399Z,41.05
2018-01-30T10:18:05.476Z,41.33
2018-01-30T10:19:05.341Z,41.24
2018-01-30T10:20:05.435Z,41.33
2018-01-30T10:21:05.291Z,40.95
2018-01-30T10:22:05.398Z,41.05
2018-01-30T10:23:05.222Z,40.95
2018-01-30T10:24:05.309Z,41.14
2018-01-30T10:25:05.164Z,41.14
2018-01-30T10:26:05.219Z,40.66
2018-01-30T10:27:05.799Z,40.66
2018-01-30T10:28:05.139Z,40.76
2018-01-30T10:29:05.050Z,40.56
2018-01-30T10:30:05.145Z,40.28
2018-01-30T10:31:04.992Z,40.47
2018-01-30T10:32:05.056Z,40.47
2018-01-30T10:33:04.933Z,40.47
2018-01-30T10:34:04.966Z,40.76
2018-01-30T10:35:04.874Z,40.95
2018-01-30T10:36:04.981Z,40.56
2018-01-30T10:37:04.819Z,40.47
2018-01-30T10:38:04.891Z,40.56
2018-01-30T10:39:04.755Z,40.56
2018-01-30T10:40:04.823Z,40.66
2018-01-30T10:41:04.709Z,40.47
2018-01-30T10:42:04.815Z,40.56
2018-01-30T10:43:04.643Z,40.66
2018-01-30T10:44:04.732Z,40.56
2018-01-30T10:45:04.583Z,40.37
2018-01-30T10:46:04.643Z,40.47
2018-01-30T10:47:04.532Z,40.37
2018-01-30T10:48:04.650Z,40.37
2018-01-30T10:49:04.472Z,40.37
2018-01-30T10:50:04.607Z,40.56
2018-01-30T10:51:04.418Z,40.28
2018-01-30T10:52:04.481Z,40.56
2018-01-30T10:53:04.351Z,40.28
2018-01-30T10:54:04.335Z,40.37
2018-01-30T10:55:04.393Z,40.25
2018-01-30T10:56:04.265Z,40.47
2018-01-30T10:57:04.304Z,40.28
2018-01-30T10:58:04.209Z,40.47
2018-01-30T10:59:04.208Z,40.76
2018-01-30T11:00:04.159Z,40.28
2018-01-30T11:01:04.125Z,40.56
2018-01-30T11:02:04.099Z,40.56
2018-01-30T11:03:04.063Z,40.18
2018-01-30T11:04:04.042Z,40.47
2018-01-30T11:05:04.006Z,40.45
2018-01-30T11:06:03.980Z,40.28
2018-01-30T11:07:03.954Z,40.73
2018-01-30T11:08:03.923Z,40.47
2018-01-30T11:09:03.893Z,40.76
2018-01-30T11:10:03.980Z,40.47
2018-01-30T11:11:03.837Z,40.18
2018-01-30T11:12:03.846Z,40.66
2018-01-30T11:13:03.780Z,40.56
2018-01-30T11:14:03.748Z,40.76
2018-01-30T11:15:03.731Z,40.37
2018-01-30T11:16:03.769Z,40.37
2018-01-30T11:17:03.665Z,40.37
2018-01-30T11:18:03.678Z,40.56
2018-01-30T11:19:03.610Z,40.76
2018-01-30T11:20:03.592Z,40.18
2018-01-30T11:21:03.556Z,40.47
2018-01-30T11:22:03.527Z,40.76
2018-01-30T11:23:03.499Z,40.56
2018-01-30T11:24:03.499Z,40.56
2018-01-30T11:25:03.437Z,40.47
2018-01-30T11:26:03.409Z,40.47
2018-01-30T11:27:03.390Z,40.76
2018-01-30T11:28:03.357Z,39.72
2018-01-30T11:29:03.325Z,39.91
2018-01-30T11:30:03.293Z,39.83
2018-01-30T11:31:03.264Z,39.95
2018-01-30T11:32:03.244Z,40.26
2018-01-30T11:33:03.214Z,38.41
2018-01-30T11:34:03.180Z,38.43
2018-01-30T11:35:03.148Z,38.78
2018-01-30T11:36:03.122Z,37.98
2018-01-30T11:37:03.099Z,37.74
2018-01-30T11:38:03.062Z,39.06
2018-01-30T11:39:03.099Z,40.89
2018-01-30T11:40:03.018Z,42.03
2018-01-30T11:41:02.984Z,42.91
2018-01-30T11:42:03.123Z,43.98
2018-01-30T11:43:03.050Z,44.09
2018-01-30T11:44:02.926Z,43.96
2018-01-30T11:45:02.876Z,43.19
2018-01-30T11:46:02.940Z,44.74
2018-01-30T11:47:02.815Z,45.40
2018-01-30T11:48:02.846Z,46.57
2018-01-30T11:49:02.756Z,47.17
2018-01-30T11:50:02.761Z,47.10
2018-01-30T11:51:02.698Z,47.15
2018-01-30T11:52:02.776Z,47.19
2018-01-30T11:53:02.644Z,46.58
2018-01-30T11:54:04.733Z,46.28
2018-01-30T11:55:02.583Z,45.95
2018-01-30T11:56:02.615Z,45.48
2018-01-30T11:57:02.709Z,44.54
2018-01-30T11:58:02.718Z,45.05
2018-01-30T11:59:02.824Z,45.02
2018-01-30T12:00:02.729Z,45.26
2018-01-30T12:01:02.865Z,44.96
2018-01-30T12:02:02.388Z,46.22
2018-01-30T12:03:02.364Z,45.78
2018-01-30T12:04:02.333Z,44.59
2018-01-30T12:05:02.304Z,45.10
2018-01-30T12:06:02.359Z,44.23
2018-01-30T12:07:02.246Z,43.72
2018-01-30T12:08:02.278Z,43.04
2018-01-30T12:09:02.190Z,42.76
2018-01-30T12:10:02.184Z,42.23
2018-01-30T12:11:02.145Z,42.68
2018-01-30T12:12:02.194Z,42.54
2018-01-30T12:13:02.080Z,42.33
2018-01-30T12:14:02.103Z,42.57
2018-01-30T12:15:02.029Z,43.02
2018-01-30T12:16:04.064Z,42.21
2018-01-30T12:17:01.971Z,42.31
2018-01-30T12:18:02.030Z,42.53
2018-01-30T12:19:01.958Z,41.49
2018-01-30T12:20:01.940Z,40.73
2018-01-30T12:21:01.855Z,40.48
2018-01-30T12:22:01.833Z,40.67
2018-01-30T12:23:03.905Z,40.48
2018-01-30T12:24:01.771Z,40.58
2018-01-30T12:25:01.749Z,40.46
2018-01-30T12:26:01.777Z,39.17
2018-01-30T12:27:01.689Z,38.49
2018-01-30T12:28:01.688Z,38.01
2018-01-30T12:29:01.629Z,36.94
2018-01-30T12:30:01.708Z,36.32
2018-01-30T12:31:01.583Z,36.17
2018-01-30T12:32:01.613Z,34.66
2018-01-30T12:33:01.524Z,35.42
2018-01-30T12:34:01.520Z,35.69
2018-01-30T12:35:01.474Z,35.68
2018-01-30T12:36:01.539Z,35.16
2018-01-30T12:37:01.416Z,34.17
2018-01-30T12:38:01.451Z,35.01
2018-01-30T12:39:13.407Z,33.84
2018-01-30T12:40:13.354Z,33.04
2018-01-30T12:42:06.699Z,32.22
2018-01-30T12:43:06.733Z,30.93
2018-01-30T12:45:00.043Z,29.21
2018-01-30T12:45:59.894Z,28.60
2018-01-30T12:46:59.865Z,28.06
2018-01-30T12:47:59.852Z,27.76
2018-01-30T12:48:59.883Z,26.78
2018-01-30T12:49:59.783Z,26.15
2018-01-30T12:50:59.750Z,25.27
2018-01-30T12:51:59.797Z,24.62
2018-01-30T12:52:59.697Z,24.32
2018-01-30T12:53:59.711Z,23.49
2018-01-30T12:54:59.637Z,23.36
2018-01-30T12:55:59.718Z,22.93
2018-01-30T12:56:59.573Z,22.39
2018-01-30T12:57:59.630Z,21.67